Aérodrome :
LOGIN :

S'inscrire | Disclaimer

   EN    FR    IT 

 










Légende :    VFR   VFR Marginal   IFR   IFR Intensif   IFR Très Intensif
Visi : 
Plafond : 
>= 8 km
>= 3000ft
5 à 8 km
1000 à 3000 ft
1500m à 5 km
500 à 1000 ft
800 à 1500m
200 à 500 ft
< 800m
< 200 ft
Symboles :   Orages  Brouillard  Fortes neiges  Fortes précipitations  Vent > 20 kt
SIGMETs :   Divers  Orages  Givrage  Turbulence  Onde Orograph.  Cendres Volcan.







- Altitude de l'aérodrome : 755 ft
- Code IATA : DRS


EDDC - Dresden Klotzsche

DERNIER METAR :
  • 301220Z 07016KT CAVOK 13/01 Q1017 TEMPO 09015G25KT

METARs EXPIRÉS :
  • 301150Z 08013KT 040V100 CAVOK 13/M01 Q1018 NOSIG
  • 301120Z 08012KT 040V130 CAVOK 13/M01 Q1018 NOSIG
  • 301050Z 07012KT 030V120 CAVOK 12/M01 Q1019 NOSIG
  • 301020Z 07010KT 040V110 CAVOK 12/M00 Q1019 NOSIG
  • 300950Z 09010KT 040V140 CAVOK 12/00 Q1019 NOSIG

TAF TAF EDDC
Valide du 30 à 12h jusqu'au 01 à 12h UTC


301100Z 3012/0112 10012KT CAVOK
PROB30
TEMPO 3012/3019 10015G25KT
BECMG 0108/0110 10015G25KT
Pas de NOTAMs connus pour ce terrain.



MET'MAP, la Météo Aéronautique d'un coup d'oeil ! - Copyright ORBIFLY Décembre 2007 - Disclaimer

ORBIFLY MET'MAP TEAM :

Programmation & Développement : Alexandra Zaïnal
Conception & Développement : Baudouin d'Aumeries
Co-Programmation & Développement : Marc-Olivier Méhu
Soutien technique & logistique : Manuel Goepfert

Contact : metmap@orbifly.com




SOURCES & CREDITS :

   NOAA